< < Back
Terminal Aerodrome Forecast


Current Version              Previous Versions:   1  2  3  4  5  6  7  8  9  

Terminal Aerodrome Forecast

633
FTUS42 KFFC 011700
TAFATL
TAF
KATL 011720Z 0118/0224 24004KT P6SM SCT050
     FM020100 VRB03KT P6SM SKC
     FM021200 17005KT P6SM BKN030
     FM021500 17006KT P6SM SCT045=



Latest METAR

603
SAUS70 KWBC 012000 RRJ
MTRATL
METAR KATL 011952Z 11006KT 10SM SCT065 SCT250 29/14 A2998 RMK AO2 SLP142
T02940139


USA.gov is the U.S. government's official web portal to all federal, state and local government web resources and services.